Latest Coastal Weather Observations for Broome

IDW60701

Issued at 5:32 am WST Sunday 14 February 2016 (issued every 10 minutes, with the page automatically refreshed every 10 minutes)

About coastal observations | Map of coastal stations | Coastal observations for WA | Marine services | Other Formats
Station Details ID: 003003 Name: BROOME AIRPORT Lat: -17.95 Lon: 122.24 Height: 7.42 m
Data from the previous 72 hours. | See also: Recent months at Broome
Date/Time
WST
Temp

°C
Wind Pressure Rain
since 9am
mm
Weather Cloud Vis
km
Sea
Height
m
Swell
Dir
 
Speed
knots
Gust
knots
hPa Trend Height
m
Period
s
Dir
14/05:30am 29.5 WNW 7 9 1008.5 - 0.0 - Partly cloudy 10 - - - -
14/05:00am 29.4 WNW 5 7 1008.2 - 0.0 - - 10 - - - -
14/04:30am 29.6 NW 7 8 1007.8 - 0.0 - - 10 - - - -
14/04:00am 29.5 WNW 7 9 1007.5 - 0.0 - - 10 - - - -
14/03:30am 29.6 NW 8 11 1007.3 - 0.0 - - 10 - - - -
14/03:00am 29.6 NW 8 11 1007.0 - 0.0 - - 10 - - - -
14/02:30am 29.6 NW 7 8 1007.1 - 0.0 - - 10 - - - -
14/02:00am 29.5 NW 6 7 1007.3 - 0.0 - - 10 - - - -
14/01:30am 29.6 NW 5 7 1007.5 - 0.0 - - 10 - - - -
14/01:00am 29.8 NW 5 7 1007.7 - 0.0 - - 10 - - - -
14/12:30am 30.2 WNW 7 10 1008.1 - 0.0 - - 10 - - - -
14/12:00am 30.3 NW 5 8 1008.4 - 0.0 - - 10 - - - -
 
Date/Time
WST
Temp

°C
Wind Pressure Rain
since 9am
mm
Weather Cloud Vis
km
Sea
Height
m
Swell
Dir
 
Speed
knots
Gust
knots
hPa Trend Height
m
Period
s
Dir
13/11:30pm 30.3 NW 6 9 1009.0 - 0.0 - - 10 - - - -
13/11:00pm 30.4 WNW 6 8 1009.3 - 0.0 - - 10 - - - -
13/10:30pm 30.4 W 5 7 1009.5 - 0.0 - - 10 - - - -
13/10:00pm 30.4 WNW 7 10 1009.2 - 0.0 - - 10 - - - -
13/09:30pm 30.5 WNW 7 9 1009.4 - 0.0 - - 10 - - - -
13/09:00pm 30.7 W 7 8 1009.2 - 0.0 - - 10 - - - -
13/08:30pm 30.7 WSW 7 9 1009.1 - 0.0 - - 10 - - - -
13/08:00pm 30.7 SW 6 7 1009.3 - 0.0 - - 10 - - - -
13/07:30pm 30.8 SW 4 6 1009.4 - 0.0 - - 10 - - - -
13/07:00pm 30.8 SSE 3 7 1009.2 - 0.0 - - 10 - - - -
13/06:30pm 30.7 NNW 2 6 1009.6 - 0.0 - - 10 - - - -
13/06:00pm 30.9 WNW 5 6 1008.8 - 0.0 - - 10 - - - -
13/05:30pm 31.5 W 7 8 1008.6 - 0.0 - - 10 - - - -
13/05:00pm 31.8 W 9 12 1007.2 - 0.0 - Mostly clear 10 - - - -
13/04:30pm 32.0 W 9 13 1007.0 - 0.0 - Mostly clear 10 - - - -
13/04:00pm 32.2 WNW 9 11 1007.3 - 0.0 - Mostly clear 10 - - - -
13/03:30pm 32.8 W 11 15 1007.5 - 0.0 - Mostly clear 10 - - - -
13/03:00pm 32.3 W 10 14 1007.8 R 0.0 Fine Mostly cloudy 22 - - - -
13/02:30pm 32.3 W 11 15 1008.1 - 0.0 - Mostly clear 10 - - - -
13/02:00pm 32.6 W 11 17 1008.3 - 0.0 - Mostly clear 10 - - - -
13/01:30pm 32.8 W 11 15 1008.5 - 0.0 - Mostly clear 10 - - - -
13/01:00pm 33.6 W 10 15 1008.8 - 0.0 - Mostly clear 10 - - - -
13/12:30pm 32.6 W 11 15 1009.0 - 0.0 - Mostly clear 10 - - - -
13/12:00pm 32.6 W 11 17 1009.2 F 0.0 Fine Mostly cloudy 23 - - - -
13/11:30am 33.3 W 10 17 1009.8 - 0.0 - Mostly clear 10 - - - -
13/11:00am 32.8 W 10 15 1010.0 - 0.0 - Partly cloudy 10 - - - -
13/10:30am 32.5 W 10 14 1010.3 - 0.0 - Mostly clear 10 - - - -
13/10:00am 32.7 W 12 16 1010.4 - 0.0 - Mostly clear 10 - - - -
13/09:30am 32.4 WNW 9 13 1010.6 - 0.0 - Mostly clear 10 - - - -
13/09:00am 31.7 W 10 15 1010.7 S 0.0 Fine Partly cloudy 21 - - - -
13/08:30am 31.6 WNW 9 13 1011.0 - 0.0 - Partly cloudy 10 - - - -
13/08:00am 31.3 W 10 13 1010.8 - 0.0 - Mostly clear 10 - - - -
13/07:30am 31.3 WNW 9 13 1010.5 - 0.0 - Mostly clear 10 - - - -
13/07:00am 30.9 WNW 7 10 1010.4 - 0.0 - Mostly clear 10 - - - -
13/06:30am 30.3 WNW 7 9 1010.0 - 0.0 - Mostly clear 10 - - - -
13/06:00am 30.1 WNW 7 9 1009.6 R 0.0 Fine Mostly cloudy 24 - - - -
13/05:30am 30.1 WNW 9 14 1009.4 - 0.0 - Partly cloudy 10 - - - -
13/05:00am 30.0 WNW 10 15 1008.9 - 0.0 - Partly cloudy 10 - - - -
13/04:30am 30.0 W 10 15 1008.6 - 0.0 - Partly cloudy 10 - - - -
13/04:00am 30.1 WNW 9 13 1008.7 - 0.0 - Partly cloudy 10 - - - -
13/03:30am 30.2 NW 8 11 1008.5 - 0.0 - - 10 - - - -
13/03:00am 30.1 NW 8 12 1008.4 - 0.0 - - 10 - - - -
13/02:30am 30.2 WNW 8 12 1008.2 - 0.0 - - 10 - - - -
13/02:00am 30.0 NW 10 14 1007.8 - 0.0 - - 10 - - - -
13/01:30am 30.1 NW 9 14 1007.9 - 0.0 - - 10 - - - -
13/01:00am 30.3 WNW 8 10 1008.2 - 0.0 - - 10 - - - -
13/12:30am 29.1 N 4 5 1008.4 - 0.0 - - 10 - - - -
13/12:00am 28.8 NNW 3 5 1008.5 - 0.0 - - 10 - - - -
 
Date/Time
WST
Temp

°C
Wind Pressure Rain
since 9am
mm
Weather Cloud Vis
km
Sea
Height
m
Swell
Dir
 
Speed
knots
Gust
knots
hPa Trend Height
m
Period
s
Dir
12/11:30pm 28.2 NE 5 8 1009.1 - 0.0 - - 10 - - - -
12/11:00pm 28.9 ENE 6 9 1009.1 - 0.0 - - 10 - - - -
12/10:30pm 30.3 NW 7 9 1008.6 - 0.0 - - 10 - - - -
12/10:00pm 30.4 WNW 8 12 1008.3 - 0.0 - - 10 - - - -
12/09:30pm 30.7 NW 7 11 1008.5 - 0.0 - - 10 - - - -
12/09:00pm 30.8 NNW 9 13 1008.3 - 0.0 - - 10 - - - -
12/08:30pm 30.4 NNW 10 14 1008.2 - 0.0 - - 10 - - - -
12/08:00pm 30.1 NNW 11 17 1008.2 - 0.0 - - 10 - - - -
12/07:30pm 30.2 NNW 10 14 1008.1 - 0.0 - - 10 - - - -
12/07:00pm 30.8 NNW 11 15 1007.8 - 0.0 - - 10 - - - -
12/06:30pm 31.2 N 11 16 1007.4 - 0.0 - Partly cloudy 10 - - - -
12/06:00pm 31.2 WNW 11 15 1006.5 - 0.0 - - 10 - - - -
12/05:30pm 31.4 NW 11 16 1006.5 - 0.0 - - 10 - - - -
12/05:00pm 31.5 WNW 13 19 1005.2 - 0.0 - Mostly clear 10 - - - -
12/04:30pm 32.0 NW 13 17 1005.5 - 0.0 - Mostly clear 10 - - - -
12/04:00pm 32.0 NNW 11 16 1005.9 - 0.0 - Mostly clear 10 - - - -
12/03:30pm 32.2 NW 14 19 1004.8 - 0.0 - Mostly clear 10 - - - -
12/03:00pm 32.3 NW 15 20 1004.9 F 0.0 Distant precip. Mostly cloudy 25 - - - -
12/02:30pm 32.6 WNW 14 18 1005.3 - 0.0 - - 10 - - - -
12/02:00pm 32.5 WNW 13 17 1006.0 - 0.0 - Mostly clear 10 - - - -
12/01:30pm 32.4 NW 11 17 1006.5 - 0.0 - Mostly clear 10 - - - -
12/01:00pm 32.5 NW 12 17 1006.9 - 0.0 - Mostly clear 10 - - - -
12/12:30pm 33.2 NW 11 16 1007.1 - 0.0 - Mostly clear 10 - - - -
12/12:00pm 33.0 NW 11 15 1007.3 R 0.0 Fine Mostly clear 30 - - - -
12/11:30am 32.9 NW 11 15 1007.7 - 0.0 - Mostly clear 10 - - - -
12/11:00am 32.7 NW 9 13 1007.9 - 0.0 - Mostly clear 10 - - - -
12/10:30am 32.4 W 9 13 1008.0 - 0.0 - Mostly clear 10 - - - -
12/10:00am 32.0 WNW 8 11 1008.1 - 0.0 - Mostly clear 10 - - - -
12/09:30am 32.2 W 8 11 1008.1 - 0.0 - Mostly clear 10 - - - -
12/09:00am 32.1 W 8 9 1008.1 F 0.0 Fine Mostly clear 25 - - - -
12/08:30am 31.5 W 8 13 1008.3 - 0.0 - Mostly clear 10 - - - -
12/08:00am 31.1 W 8 10 1008.2 - 0.0 - Mostly clear 10 - - - -
12/07:30am 30.8 W 10 12 1008.1 - 0.0 - Mostly clear 10 - - - -
12/07:00am 30.3 W 8 10 1008.0 - 0.0 - Mostly clear 10 - - - -
12/06:30am 29.5 WNW 6 8 1007.8 - 0.0 - Mostly clear 10 - - - -
12/06:20am 29.0 NW 1 6 1007.9 - 0.0 - Mostly clear 10 - - - -
12/06:00am 28.3 NW 1 5 1007.5 F 0.0 Distant fog Mostly clear 18 - - - -
12/05:30am 28.8 W 2 6 1007.5 - 0.0 - Mostly clear 10 - - - -
12/05:00am 29.2 W 5 7 1007.5 - 0.0 - Partly cloudy 10 - - - -
12/04:30am 29.3 W 3 7 1007.2 - 0.0 - Partly cloudy 10 - - - -
12/04:00am 29.3 W 6 8 1006.9 - 0.0 - Partly cloudy 10 - - - -
12/03:30am 29.3 W 4 6 1007.1 - 0.0 - Partly cloudy 10 - - - -
12/03:00am 29.1 WNW 6 9 1006.6 - 0.0 - Mostly clear 10 - - - -
12/02:35am 29.1 WNW 4 5 1006.9 - 0.0 - Partly cloudy 10 - - - -
12/02:30am 29.2 WNW 4 6 1006.9 - 0.0 - Partly cloudy 10 - - - -
12/02:00am 29.4 WSW 4 5 1007.2 - 0.0 - Partly cloudy 10 - - - -
12/01:56am 29.4 W 4 5 1007.1 - 0.0 - Partly cloudy 10 - - - -
12/01:30am 29.3 W 3 5 1006.9 - 0.0 - Partly cloudy 10 - - - -
12/01:00am 29.4 WNW 4 6 1007.1 - 0.0 - Partly cloudy 10 - - - -
12/12:30am 29.6 WNW 5 6 1007.3 - 0.0 - Partly cloudy 10 - - - -
12/12:00am 29.7 WNW 5 7 1007.6 - 0.0 - Mostly clear 10 - - - -
 
Date/Time
WST
Temp

°C
Wind Pressure Rain
since 9am
mm
Weather Cloud Vis
km
Sea
Height
m
Swell
Dir
 
Speed
knots
Gust
knots
hPa Trend Height
m
Period
s
Dir
11/11:56pm 29.7 WNW 5 7 1007.7 - 0.0 - Partly cloudy 10 - - - -
11/11:30pm 29.8 WNW 4 6 1007.7 - 0.0 - Partly cloudy 10 - - - -
11/11:20pm 29.9 W 5 7 1007.7 - 0.0 - Partly cloudy 10 - - - -
11/11:00pm 29.8 NW 6 8 1007.6 - 0.0 - Partly cloudy 10 - - - -
11/10:30pm 29.9 WNW 5 7 1007.9 - 0.0 - - 10 - - - -
11/10:00pm 29.9 NW 5 8 1007.9 - 0.0 - Partly cloudy 10 - - - -
11/09:30pm 30.0 NNW 6 9 1007.6 - 0.0 - Partly cloudy 10 - - - -
11/09:00pm 30.1 NW 4 7 1007.1 - 0.0 - - 10 - - - -
11/08:30pm 30.2 WNW 5 7 1006.8 - 0.0 - - 10 - - - -
11/08:00pm 30.3 WNW 6 9 1006.4 - 0.0 - - 10 - - - -
11/07:30pm 30.3 W 6 9 1006.1 - 0.0 - - 10 - - - -
11/07:00pm 30.3 WNW 7 11 1005.8 - 0.0 - - 10 - - - -
11/06:30pm 30.7 WNW 8 11 1005.7 - 0.0 - - 10 - - - -
11/06:00pm 31.2 WNW 9 14 1005.2 - 0.0 - Mostly clear 10 - - - -
11/05:30pm 31.6 WNW 9 12 1004.8 - 0.0 - - 10 - - - -
11/05:00pm 31.8 W 12 16 1004.5 - 0.0 - Mostly clear 10 - - - -
11/04:30pm 31.7 W 12 15 1004.5 - 0.0 - Mostly clear 10 - - - -
11/04:00pm 32.1 NW 12 17 1004.5 - 0.0 - Mostly clear 10 - - - -
11/03:30pm 32.0 WNW 11 14 1004.8 - 0.0 - Mostly clear 10 - - - -
11/03:00pm 32.2 NW 11 14 1004.8 F 0.0 Distant precip. Partly cloudy 30 - - - -
11/02:30pm 32.0 WNW 11 14 1005.1 - 0.0 - - 10 - - - -
11/02:00pm 33.0 NW 10 15 1005.4 - 0.0 - Mostly clear 10 - - - -
11/01:30pm 31.8 WNW 11 16 1005.7 - 0.0 - Mostly clear 10 - - - -
11/01:00pm 33.3 WNW 11 16 1006.2 - 0.0 - Mostly clear 10 - - - -
11/12:30pm 32.6 WNW 11 17 1006.3 - 0.0 - Mostly clear 10 - - - -
11/12:00pm 32.5 WNW 10 14 1006.7 S 0.0 Fine Partly cloudy 30 - - - -
11/11:30am 32.5 WNW 9 13 1007.1 - 0.0 - Mostly clear 10 - - - -
11/11:00am 32.5 WNW 8 11 1007.4 - 0.0 - Mostly clear 10 - - - -
11/10:30am 32.7 WNW 10 13 1007.5 - 0.0 - Mostly clear 10 - - - -
11/10:00am 32.1 WNW 9 12 1007.7 - 0.0 - Mostly clear 10 - - - -
11/09:30am 32.2 WNW 6 10 1007.9 - 0.0 - Mostly clear 10 - - - -
11/09:00am 32.0 W 7 11 1007.9 F 0.0 Fine Mostly clear 30 - - - -
11/08:30am 31.4 W 9 11 1007.9 - 0.0 - Mostly clear 10 - - - -
11/08:00am 31.0 W 7 10 1008.0 - 0.0 - Mostly clear 10 - - - -
11/07:30am 31.1 W 7 10 1007.7 - 0.0 - Mostly clear 10 - - - -
11/07:00am 30.4 W 7 11 1007.5 - 0.0 - Mostly clear 10 - - - -
11/06:30am 30.0 W 5 7 1007.5 - 0.0 - Mostly clear 10 - - - -
11/06:00am 29.0 W 4 6 1007.3 F 0.0 Haze Partly cloudy 18 - - - -

Other Formats:

Comma delimited format used in spreadsheet applications
http://www.bom.gov.au/fwo/IDW60701/IDW60701.94203.axf

JavaScript Object Notation format (JSON) in row-major order
http://www.bom.gov.au/fwo/IDW60701/IDW60701.94203.json